12VJ CYXU-ZZZZ
Flight info
| Callsign | 12VJ |
|---|---|
| Flight time | N/A |
| Altitude | |
| Route | VFR DP S |
| Aircraft | SF50 |
Departure
| Time | 2026-04-27 03:00 |
|---|---|
| Airport | London International Airport (CYXU) |
Arrival
| Time | N/A |
|---|---|
| Airport | ZZZZ |
| Time | Latitude | Longitude | Altitude | Speed | Heading |
|---|---|---|---|---|---|
| 2026-04-27 02:51 | 43.03569 | -81.16224 | 904 ft | 0 kts | 358° |
| 2026-04-27 02:53 | 43.03573 | -81.16224 | 904 ft | 4 kts | 348° |
| 2026-04-27 02:53 | 43.03599 | -81.16239 | 904 ft | 1 kts | 341° |
| 2026-04-27 02:53 | 43.03600 | -81.16240 | 904 ft | 1 kts | 341° |
| 2026-04-27 02:53 | 43.03658 | -81.16269 | 904 ft | 11 kts | 343° |
| 2026-04-27 02:54 | 43.03719 | -81.16287 | 904 ft | 3 kts | 350° |
| 2026-04-27 02:54 | 43.03720 | -81.16287 | 904 ft | 0 kts | 350° |
| 2026-04-27 02:59 | 43.03757 | -81.16296 | 904 ft | 9 kts | 348° |
| 2026-04-27 02:59 | 43.03822 | -81.16265 | 904 ft | 15 kts | 77° |
| 2026-04-27 02:59 | 43.03886 | -81.15816 | 901 ft | 88 kts | 79° |
| 2026-04-27 02:59 | 43.04024 | -81.14766 | 1112 ft | 127 kts | 80° |
| 2026-04-27 03:00 | 43.04051 | -81.13514 | 1688 ft | 136 kts | 102° |
| 2026-04-27 03:00 | 43.03530 | -81.12473 | 2459 ft | 133 kts | 130° |
| 2026-04-27 03:00 | 43.02936 | -81.11654 | 2934 ft | 104 kts | 129° |
| 2026-04-27 03:00 | 43.02463 | -81.10983 | 3009 ft | 98 kts | 129° |
| 2026-04-27 03:01 | 43.02105 | -81.10228 | 3210 ft | 101 kts | 111° |
| 2026-04-27 03:01 | 43.01839 | -81.09324 | 3277 ft | 99 kts | 109° |
| 2026-04-27 03:01 | 43.01581 | -81.08463 | 3269 ft | 97 kts | 112° |
| 2026-04-27 03:01 | 43.01305 | -81.07644 | 3272 ft | 93 kts | 112° |
| 2026-04-27 03:02 | 43.01038 | -81.06842 | 3271 ft | 92 kts | 112° |
| 2026-04-27 03:02 | 43.00819 | -81.06184 | 3270 ft | 91 kts | 112° |
| 2026-04-27 03:02 | 43.00696 | -81.05813 | 3272 ft | 89 kts | 112° |
| 2026-04-27 03:02 | 43.00469 | -81.05130 | 3270 ft | 88 kts | 111° |
| 2026-04-27 03:03 | 43.00221 | -81.04370 | 3269 ft | 87 kts | 111° |
| 2026-04-27 03:03 | 42.99731 | -81.02874 | 3270 ft | 86 kts | 111° |
| 2026-04-27 03:03 | 42.99486 | -81.02130 | 3271 ft | 86 kts | 112° |
| 2026-04-27 03:04 | 42.99240 | -81.01380 | 3272 ft | 86 kts | 111° |
| 2026-04-27 03:04 | 42.98995 | -81.00630 | 3273 ft | 86 kts | 111° |
| 2026-04-27 03:04 | 42.98808 | -81.00046 | 3273 ft | 91 kts | 111° |
| 2026-04-27 03:05 | 42.98752 | -80.99873 | 3275 ft | 93 kts | 111° |
| 2026-04-27 03:05 | 42.98460 | -80.99020 | 3310 ft | 112 kts | 124° |